Lanai Airport Lanai City US
ICAO: PHNY
IATA:
Category: Medium
Scheduled Services:

Elevation: 1308 ft
TransAlt. 0 ft.

Airport Communications:
ASOS:118.375
HONOLULU CNTR:119.3
CTAF:122.9
RDO:117.7

PHNY Zoom In..

Runways:

(A) RW 03 length 5001 ft width 150 ft
ILS 111.10 / hdg 33

(B) RW 21 length 5001 ft width 150 ft
---- / hdg 213

Location; PHNY
Day. 20 / Time. 19.56 Zulu
* Altimeter: 30.06
* Temperature: 25° c. 77°f.
* Wind from: 270° Speed 05 kn.
Dewpoint: 18° c.
Visibility: 10 Statute Miles.
Clouds: Scattered 2900 ft.
Clouds: Overcast 3800 ft.

PHNY 201956Z AUTO 27005KT 10SM SCT029 OVC038 25/18 A3006 RMK AO2 SLP158 T02500183


Wind From 270°
Speed 05 kn.

 
 
jpsmedia.com for Web Design worldairports.se 2018   terms of use